Time;durP1;ratioP1;P1;durP2;ratioP2;P2;SDS_P1;SDS_P2;PMS_P1;PMS_P2;Temp;Humidity;BMP_temperature;BMP_pressure;BME280_temperature;BME280_humidity;BME280_pressure;Samples;Min_cycle;Max_cycle;Signal;HPM_P1;HPM_P2
2020/12/29 00:01:34;;;;;;;20.60;13.07;;;4.30;99.90;;;;;;4992556;28;20454;-58
2020/12/29 00:04:04;;;;;;;22.40;13.03;;;4.30;99.90;;;;;;4992444;28;20450;-56
2020/12/29 00:06:30;;;;;;;22.40;13.80;;;4.30;99.90;;;;;;4992116;28;20457;-58
2020/12/29 00:08:58;;;;;;;22.30;12.30;;;4.30;99.90;;;;;;4991857;28;20483;-58
2020/12/29 00:11:24;;;;;;;16.80;11.90;;;4.30;99.90;;;;;;4991616;28;20458;-57
2020/12/29 00:13:51;;;;;;;24.93;15.33;;;4.30;99.90;;;;;;4991856;28;20481;-57
2020/12/29 00:16:17;;;;;;;22.27;13.97;;;4.20;99.90;;;;;;4991612;28;20474;-57
2020/12/29 00:19:09;;;;;;;18.00;12.37;;;4.20;99.90;;;;;;4991810;28;20488;-58
2020/12/29 00:21:48;;;;;;;26.67;14.13;;;4.20;99.90;;;;;;4991590;28;20481;-58
2020/12/29 00:24:16;;;;;;;20.00;14.20;;;4.20;99.90;;;;;;4992012;28;20463;-57
2020/12/29 00:26:45;;;;;;;22.43;12.60;;;4.20;99.90;;;;;;4991619;28;20542;-59
2020/12/29 00:29:12;;;;;;;25.50;13.97;;;4.20;99.90;;;;;;4992610;28;20486;-57
2020/12/29 00:31:38;;;;;;;20.67;12.30;;;4.10;99.90;;;;;;4993123;28;20485;-55
2020/12/29 00:34:08;;;;;;;26.87;12.20;;;4.10;99.90;;;;;;4992557;28;20460;-57
2020/12/29 00:36:34;;;;;;;21.23;13.43;;;4.10;99.90;;;;;;4992717;28;20454;-59
2020/12/29 00:39:01;;;;;;;21.90;13.77;;;4.10;99.90;;;;;;4992355;28;20458;-58
2020/12/29 00:41:28;;;;;;;26.30;15.33;;;4.10;99.90;;;;;;4993167;28;20475;-56
2020/12/29 00:43:56;;;;;;;24.23;12.60;;;4.10;99.90;;;;;;4992538;28;20450;-56
2020/12/29 00:46:22;;;;;;;23.07;14.43;;;4.10;99.90;;;;;;4991579;28;20465;-56
2020/12/29 00:48:49;;;;;;;24.00;14.23;;;4.00;99.90;;;;;;4992091;28;20482;-53
2020/12/29 00:51:18;;;;;;;25.93;14.97;;;4.10;99.90;;;;;;4991911;28;20949;-58
2020/12/29 00:53:44;;;;;;;23.17;13.83;;;4.10;99.90;;;;;;4992431;28;20796;-56
2020/12/29 00:56:14;;;;;;;24.90;14.60;;;4.10;99.90;;;;;;4992278;28;20482;-55
2020/12/29 00:58:41;;;;;;;22.57;13.77;;;4.10;99.90;;;;;;4992047;28;20505;-58
2020/12/29 01:01:09;;;;;;;18.07;12.93;;;4.10;99.90;;;;;;4992037;28;20446;-58
2020/12/29 01:03:37;;;;;;;26.80;14.57;;;4.10;99.90;;;;;;4991977;28;20447;-57
2020/12/29 01:06:03;;;;;;;22.50;13.77;;;4.10;99.90;;;;;;4992316;28;20459;-58
2020/12/29 01:08:30;;;;;;;23.17;14.70;;;4.10;99.90;;;;;;4992306;28;20451;-59
2020/12/29 01:10:57;;;;;;;23.20;14.03;;;4.10;99.90;;;;;;4992038;28;20506;-57
2020/12/29 01:13:24;;;;;;;23.90;14.43;;;4.10;99.90;;;;;;4991492;28;20497;-59
2020/12/29 01:15:52;;;;;;;22.00;13.50;;;4.10;99.90;;;;;;4991308;28;20450;-58
2020/12/29 01:18:19;;;;;;;24.07;14.10;;;4.20;99.90;;;;;;4990853;28;20462;-57
2020/12/29 01:20:47;;;;;;;22.50;15.03;;;4.10;99.90;;;;;;4991379;28;20789;-56
2020/12/29 01:23:13;;;;;;;22.33;13.80;;;4.20;99.90;;;;;;4991287;28;20517;-59
2020/12/29 01:25:41;;;;;;;21.73;13.47;;;4.20;99.90;;;;;;4991785;28;20455;-52
2020/12/29 01:28:09;;;;;;;25.00;12.70;;;4.20;99.90;;;;;;4991453;28;20459;-55
2020/12/29 01:30:35;;;;;;;24.80;14.00;;;4.30;99.90;;;;;;4991452;28;20479;-59
2020/12/29 01:33:03;;;;;;;23.60;14.20;;;4.20;99.90;;;;;;4990937;28;20467;-58
2020/12/29 01:35:29;;;;;;;24.23;12.77;;;4.20;99.90;;;;;;4991614;28;20458;-59
2020/12/29 01:37:55;;;;;;;24.53;13.27;;;4.20;99.90;;;;;;4991440;28;20474;-56
2020/12/29 01:40:22;;;;;;;19.40;12.23;;;4.20;99.90;;;;;;4990930;28;20517;-58
2020/12/29 01:42:48;;;;;;;24.10;13.03;;;4.10;99.90;;;;;;4990626;28;20551;-55
2020/12/29 01:45:18;;;;;;;23.50;14.10;;;4.20;99.90;;;;;;4990908;28;20451;-54
2020/12/29 01:47:44;;;;;;;22.63;15.63;;;4.10;99.90;;;;;;4991748;28;20482;-57
2020/12/29 01:50:13;;;;;;;20.77;13.40;;;4.10;99.90;;;;;;4990872;28;20502;-58
2020/12/29 01:52:40;;;;;;;17.93;12.70;;;4.20;99.90;;;;;;4991323;28;20490;-55
2020/12/29 01:55:09;;;;;;;22.97;14.17;;;4.20;99.90;;;;;;4991561;28;20470;-58
2020/12/29 01:57:36;;;;;;;26.33;15.00;;;4.20;99.90;;;;;;4990907;28;20788;-57
2020/12/29 02:00:06;;;;;;;20.20;14.63;;;4.20;99.90;;;;;;4990543;28;20447;-57
2020/12/29 02:02:33;;;;;;;29.03;16.03;;;4.30;99.90;;;;;;4991382;28;20459;-59
2020/12/29 02:04:59;;;;;;;24.43;15.10;;;4.30;99.90;;;;;;4991149;28;20537;-59
2020/12/29 02:07:27;;;;;;;27.07;15.60;;;4.30;99.90;;;;;;4991066;28;20454;-57
2020/12/29 02:09:54;;;;;;;21.73;14.37;;;4.20;99.90;;;;;;4990478;28;20525;-58
2020/12/29 02:12:25;;;;;;;30.60;15.57;;;4.20;99.90;;;;;;4990940;28;20550;-59
2020/12/29 02:14:52;;;;;;;21.83;13.60;;;4.20;99.90;;;;;;4990648;28;20446;-56
2020/12/29 02:17:18;;;;;;;26.50;14.37;;;4.20;99.90;;;;;;4989488;28;20485;-52
2020/12/29 02:19:45;;;;;;;21.40;14.90;;;4.20;99.90;;;;;;4990232;28;20443;-58
2020/12/29 02:22:17;;;;;;;22.47;13.87;;;4.20;99.90;;;;;;4991338;28;20478;-57
2020/12/29 02:24:51;;;;;;;23.83;14.70;;;4.10;99.90;;;;;;4991344;28;20443;-57
2020/12/29 02:27:18;;;;;;;21.80;13.33;;;4.10;99.90;;;;;;4990909;28;20430;-58
2020/12/29 02:29:47;;;;;;;26.43;14.33;;;4.10;99.90;;;;;;4990221;28;20478;-57
2020/12/29 02:32:14;;;;;;;22.83;13.07;;;4.00;99.90;;;;;;4990405;28;20459;-58
2020/12/29 02:34:41;;;;;;;22.27;13.83;;;4.10;99.90;;;;;;4990297;28;20459;-58
2020/12/29 02:37:09;;;;;;;23.50;14.43;;;4.10;99.90;;;;;;4990112;28;20458;-59
2020/12/29 02:39:38;;;;;;;21.13;15.20;;;4.10;99.90;;;;;;4989481;28;20463;-58
2020/12/29 02:42:05;;;;;;;23.20;15.73;;;4.10;99.90;;;;;;4989496;28;20466;-58
2020/12/29 02:44:31;;;;;;;21.87;14.67;;;4.10;99.90;;;;;;4989671;28;20482;-60
2020/12/29 02:46:58;;;;;;;24.30;13.27;;;4.10;99.90;;;;;;4989567;28;20446;-60
2020/12/29 02:49:24;;;;;;;24.67;14.30;;;4.20;99.90;;;;;;4989797;28;20499;-58
2020/12/29 02:51:51;;;;;;;21.23;14.50;;;4.20;99.90;;;;;;4989545;28;20451;-55
2020/12/29 02:54:17;;;;;;;20.63;11.77;;;4.20;99.90;;;;;;4989680;28;20518;-56
2020/12/29 02:56:45;;;;;;;19.00;12.33;;;4.20;99.90;;;;;;4989970;28;20447;-57
2020/12/29 02:59:11;;;;;;;16.93;11.60;;;4.20;99.90;;;;;;4989685;28;20463;-58
2020/12/29 03:01:38;;;;;;;23.57;13.30;;;4.20;99.90;;;;;;4988229;28;20458;-59
2020/12/29 03:04:05;;;;;;;20.83;14.07;;;4.20;99.90;;;;;;4989439;28;20502;-58
2020/12/29 03:06:31;;;;;;;21.13;13.47;;;4.20;99.90;;;;;;4989678;28;20466;-59
2020/12/29 03:08:57;;;;;;;23.20;14.10;;;4.20;99.90;;;;;;4989154;28;20503;-61
2020/12/29 03:11:28;;;;;;;18.37;12.07;;;4.20;99.90;;;;;;4989258;28;20518;-52
2020/12/29 03:13:57;;;;;;;23.87;16.17;;;4.20;99.90;;;;;;4990063;28;20442;-58
2020/12/29 03:16:23;;;;;;;24.97;13.50;;;4.30;99.90;;;;;;4989340;28;20450;-55
2020/12/29 03:18:50;;;;;;;25.80;11.80;;;4.30;99.90;;;;;;4989279;28;20474;-56
2020/12/29 03:21:18;;;;;;;24.07;14.27;;;4.20;99.90;;;;;;4989857;28;20478;-58
2020/12/29 03:23:45;;;;;;;20.63;13.80;;;4.10;99.90;;;;;;4990048;28;20446;-59
2020/12/29 03:26:12;;;;;;;17.60;12.07;;;4.20;99.90;;;;;;4989606;28;20466;-58
2020/12/29 03:28:38;;;;;;;28.30;16.60;;;4.10;99.90;;;;;;4990363;28;20799;-58
2020/12/29 03:31:06;;;;;;;19.20;11.77;;;4.10;99.90;;;;;;4996299;28;20932;-58
2020/12/29 03:33:33;;;;;;;26.43;13.27;;;4.10;99.90;;;;;;4996465;28;20470;-56
2020/12/29 03:35:59;;;;;;;24.77;12.60;;;4.10;99.90;;;;;;4995799;28;20451;-57
2020/12/29 03:38:28;;;;;;;21.57;12.30;;;4.10;99.90;;;;;;4995939;28;20454;-54
2020/12/29 03:40:55;;;;;;;21.00;14.20;;;4.00;99.90;;;;;;4995089;28;20493;-58
2020/12/29 03:43:22;;;;;;;23.43;12.77;;;4.10;99.90;;;;;;4995988;28;20486;-57
2020/12/29 03:45:50;;;;;;;22.67;13.07;;;4.10;99.90;;;;;;4996486;28;20446;-58
2020/12/29 03:48:23;;;;;;;20.93;12.53;;;4.10;99.90;;;;;;4995736;28;20450;-60
2020/12/29 03:50:49;;;;;;;21.97;14.10;;;4.10;99.90;;;;;;4996257;28;20497;-59
2020/12/29 03:53:16;;;;;;;23.73;13.40;;;4.10;99.90;;;;;;4996794;28;20451;-58
2020/12/29 03:55:42;;;;;;;21.37;13.53;;;4.10;99.90;;;;;;4996920;28;20832;-59
2020/12/29 03:58:09;;;;;;;22.43;13.97;;;4.00;99.90;;;;;;4996887;28;20516;-58
2020/12/29 04:00:36;;;;;;;23.93;14.57;;;3.90;99.90;;;;;;4997413;28;20445;-58
2020/12/29 04:03:03;;;;;;;24.53;12.80;;;3.90;99.90;;;;;;4996772;28;20457;-58
2020/12/29 04:05:31;;;;;;;20.20;13.40;;;3.90;99.90;;;;;;4996695;28;20450;-59
2020/12/29 04:07:58;;;;;;;20.47;11.87;;;4.00;99.90;;;;;;4997591;28;20463;-58
2020/12/29 04:10:24;;;;;;;22.40;13.20;;;4.00;99.90;;;;;;5020640;23;20493;-57
2020/12/29 04:12:51;;;;;;;23.10;13.17;;;4.00;99.90;;;;;;5038498;23;20531;-58
2020/12/29 04:15:17;;;;;;;25.83;14.07;;;4.00;99.90;;;;;;5016064;28;20445;-56
2020/12/29 04:17:44;;;;;;;25.53;14.77;;;4.00;99.90;;;;;;5015206;28;20474;-57
2020/12/29 04:20:12;;;;;;;23.10;13.17;;;4.10;99.90;;;;;;5015879;28;20511;-58
2020/12/29 04:22:41;;;;;;;22.70;14.23;;;4.10;99.90;;;;;;5016474;28;20457;-57
2020/12/29 04:25:09;;;;;;;19.90;12.20;;;4.00;99.90;;;;;;5016976;28;20445;-59
2020/12/29 04:27:36;;;;;;;22.27;14.27;;;3.90;99.90;;;;;;5016621;28;20452;-59
2020/12/29 04:30:04;;;;;;;23.07;12.10;;;4.00;99.90;;;;;;5017133;28;20512;-59
2020/12/29 04:32:31;;;;;;;19.47;13.97;;;3.90;99.90;;;;;;5016517;28;20460;-59
2020/12/29 04:34:58;;;;;;;21.73;12.47;;;3.90;99.90;;;;;;5016447;28;20549;-57
2020/12/29 04:37:24;;;;;;;27.80;16.00;;;3.90;99.90;;;;;;5016545;28;20445;-59
2020/12/29 04:39:52;;;;;;;25.33;14.70;;;3.90;99.90;;;;;;5016393;28;20464;-60
2020/12/29 04:42:20;;;;;;;22.30;14.90;;;3.90;99.90;;;;;;5012420;28;20442;-58
2020/12/29 04:44:47;;;;;;;25.23;14.90;;;4.00;99.90;;;;;;5013689;28;20446;-59
2020/12/29 04:47:14;;;;;;;21.53;14.00;;;4.00;99.90;;;;;;5013369;28;20446;-57
2020/12/29 04:49:40;;;;;;;26.70;15.97;;;4.00;99.90;;;;;;5013048;28;20492;-59
2020/12/29 04:52:08;;;;;;;25.93;13.60;;;3.90;99.90;;;;;;5012659;28;20445;-59
2020/12/29 04:54:36;;;;;;;17.63;11.87;;;3.90;99.90;;;;;;5014739;28;20469;-59
2020/12/29 04:57:05;;;;;;;16.70;12.93;;;3.80;99.90;;;;;;5014167;28;20442;-60
2020/12/29 04:59:32;;;;;;;19.40;12.70;;;3.80;99.90;;;;;;5013117;28;20461;-59
2020/12/29 05:01:59;;;;;;;26.57;17.00;;;3.70;99.90;;;;;;5013499;28;20476;-58
2020/12/29 05:04:26;;;;;;;21.00;14.23;;;3.70;99.90;;;;;;5013219;28;20450;-56
2020/12/29 05:06:52;;;;;;;28.47;13.00;;;3.80;99.90;;;;;;5013774;28;20453;-56
2020/12/29 05:09:19;;;;;;;22.53;12.47;;;3.80;99.90;;;;;;5013076;28;20501;-55
2020/12/29 05:11:46;;;;;;;25.30;14.90;;;3.80;99.90;;;;;;5013255;28;20469;-59
2020/12/29 05:14:14;;;;;;;29.10;14.10;;;3.80;99.90;;;;;;5013265;28;20446;-59
2020/12/29 05:16:40;;;;;;;22.17;14.17;;;3.80;99.90;;;;;;5013551;28;20465;-58
2020/12/29 05:19:08;;;;;;;20.67;13.27;;;3.80;99.90;;;;;;5013901;28;20454;-59
2020/12/29 05:21:36;;;;;;;28.53;13.63;;;3.70;99.90;;;;;;5014051;28;20442;-57
2020/12/29 05:24:09;;;;;;;24.33;13.47;;;3.70;99.90;;;;;;5014888;28;20512;-56
2020/12/29 05:26:37;;;;;;;18.87;12.97;;;3.60;99.90;;;;;;5015173;28;20442;-59
2020/12/29 05:29:04;;;;;;;28.90;15.20;;;3.50;99.90;;;;;;5015194;28;20512;-58
2020/12/29 05:31:34;;;;;;;26.93;14.47;;;3.40;99.90;;;;;;5015741;28;20437;-58
2020/12/29 05:34:01;;;;;;;25.90;15.00;;;3.40;99.90;;;;;;5015528;28;20462;-54
2020/12/29 05:36:28;;;;;;;20.43;12.13;;;3.40;99.90;;;;;;5012279;28;20482;-66
2020/12/29 05:39:06;;;;;;;25.50;13.67;;;3.30;99.90;;;;;;5010793;28;20470;-66
2020/12/29 05:41:37;;;;;;;21.17;12.40;;;3.30;99.90;;;;;;5011425;28;20468;-66
2020/12/29 05:44:05;;;;;;;28.27;14.27;;;3.40;99.90;;;;;;5009831;28;20460;-67
2020/12/29 05:46:31;;;;;;;22.43;14.40;;;3.30;99.90;;;;;;5008871;28;20461;-68
2020/12/29 05:48:59;;;;;;;25.80;14.50;;;3.30;99.90;;;;;;5008098;28;20513;-67
2020/12/29 05:51:26;;;;;;;21.77;13.40;;;3.30;99.90;;;;;;5008610;28;20478;-68
2020/12/29 05:54:02;;;;;;;22.33;13.33;;;3.30;99.90;;;;;;5008563;28;20497;-66
2020/12/29 05:56:34;;;;;;;21.97;13.57;;;3.30;99.90;;;;;;5008962;28;20465;-66
2020/12/29 05:59:03;;;;;;;22.70;12.63;;;3.20;99.90;;;;;;5009883;28;20472;-66
2020/12/29 06:01:37;;;;;;;25.40;15.03;;;3.20;99.90;;;;;;5009789;28;20466;-66
2020/12/29 06:04:05;;;;;;;21.77;13.50;;;3.20;99.90;;;;;;5009765;28;20486;-66
2020/12/29 06:06:36;;;;;;;28.27;15.30;;;3.30;99.90;;;;;;5009774;28;20918;-67
2020/12/29 06:09:06;;;;;;;22.47;14.27;;;3.30;99.90;;;;;;5009316;28;20434;-65
2020/12/29 06:11:39;;;;;;;35.87;14.50;;;3.30;99.90;;;;;;5008236;28;20528;-65
2020/12/29 06:14:14;;;;;;;22.33;12.90;;;3.30;99.90;;;;;;5008263;28;20431;-67
2020/12/29 06:16:41;;;;;;;21.73;13.10;;;3.20;99.90;;;;;;5007081;28;20445;-67
2020/12/29 06:19:19;;;;;;;26.97;13.97;;;3.20;99.90;;;;;;5007503;28;20504;-66
2020/12/29 06:22:02;;;;;;;23.90;13.13;;;3.20;99.90;;;;;;5007536;28;20437;-66
2020/12/29 06:24:30;;;;;;;18.40;12.70;;;3.30;99.90;;;;;;5006629;28;20485;-66
2020/12/29 06:26:59;;;;;;;22.53;12.03;;;3.30;99.90;;;;;;5008196;28;20446;-67
2020/12/29 06:29:31;;;;;;;25.20;14.73;;;3.30;99.90;;;;;;5009053;28;20482;-65
2020/12/29 06:32:02;;;;;;;24.90;13.77;;;3.30;99.90;;;;;;5008206;28;20522;-65
2020/12/29 06:34:34;;;;;;;26.80;15.87;;;3.20;99.90;;;;;;5008065;28;20454;-65
2020/12/29 06:37:08;;;;;;;27.03;15.43;;;3.20;99.90;;;;;;5005270;28;20444;-66
2020/12/29 06:39:40;;;;;;;18.77;12.60;;;3.20;99.90;;;;;;4996240;28;20444;-66
2020/12/29 06:42:07;;;;;;;21.03;12.63;;;3.20;99.90;;;;;;5000478;28;20486;-65
2020/12/29 06:44:34;;;;;;;19.50;12.13;;;3.20;99.90;;;;;;5002281;28;20477;-65
2020/12/29 06:47:07;;;;;;;28.67;13.47;;;3.20;99.90;;;;;;5009342;28;20458;-66
2020/12/29 06:49:35;;;;;;;23.23;15.57;;;3.20;99.90;;;;;;5008754;28;21000;-66
2020/12/29 06:52:18;;;;;;;19.77;12.57;;;3.20;99.90;;;;;;5004115;28;20514;-65
2020/12/29 06:54:46;;;;;;;29.07;14.70;;;3.20;99.90;;;;;;5006779;28;20445;-64
2020/12/29 06:57:13;;;;;;;26.67;14.73;;;3.20;99.90;;;;;;5007578;28;20534;-65
2020/12/29 06:59:40;;;;;;;24.60;13.83;;;3.20;99.90;;;;;;5007615;28;20446;-66
2020/12/29 07:02:21;;;;;;;21.60;13.53;;;3.20;99.90;;;;;;5007440;28;20888;-66
2020/12/29 07:04:53;;;;;;;22.47;13.70;;;3.10;99.90;;;;;;5007514;28;20472;-65
2020/12/29 07:07:26;;;;;;;21.30;13.13;;;3.10;99.90;;;;;;5008031;28;20470;-65
2020/12/29 07:09:59;;;;;;;26.80;14.80;;;3.10;99.90;;;;;;5007307;28;20477;-65
2020/12/29 07:12:30;;;;;;;21.20;13.83;;;3.20;99.90;;;;;;4990885;28;20474;-65
2020/12/29 07:15:00;;;;;;;25.77;16.70;;;3.20;99.90;;;;;;4987662;28;20463;-65
2020/12/29 07:17:30;;;;;;;25.97;15.33;;;3.20;99.90;;;;;;4988231;28;20435;-66
2020/12/29 07:19:57;;;;;;;23.23;13.93;;;3.20;99.90;;;;;;4986978;28;20502;-66
2020/12/29 07:22:26;;;;;;;24.83;15.83;;;3.40;99.90;;;;;;4987777;28;20451;-66
2020/12/29 07:24:56;;;;;;;22.50;14.17;;;3.50;99.90;;;;;;4978143;28;20478;-66
2020/12/29 07:27:27;;;;;;;28.03;14.93;;;3.50;99.90;;;;;;4978789;28;20496;-66
2020/12/29 07:29:57;;;;;;;25.20;15.00;;;3.50;99.90;;;;;;4979600;28;20541;-67
2020/12/29 07:32:23;;;;;;;27.77;14.60;;;3.50;99.90;;;;;;4975073;28;20525;-67
2020/12/29 07:34:50;;;;;;;19.37;12.47;;;3.50;99.90;;;;;;4978979;28;20486;-65
2020/12/29 07:37:19;;;;;;;24.20;14.27;;;3.40;99.90;;;;;;4987509;28;20447;-67
2020/12/29 07:39:46;;;;;;;24.67;13.70;;;3.40;99.90;;;;;;4987263;28;20470;-66
2020/12/29 07:42:14;;;;;;;25.10;14.97;;;3.40;99.90;;;;;;4987506;28;20451;-66
2020/12/29 07:44:40;;;;;;;21.97;13.47;;;3.30;99.90;;;;;;4984975;28;20453;-67
2020/12/29 07:47:07;;;;;;;23.07;14.23;;;3.30;99.90;;;;;;4986026;28;20443;-67
2020/12/29 07:49:33;;;;;;;21.70;12.90;;;3.30;99.90;;;;;;4987878;28;20506;-67
2020/12/29 07:52:00;;;;;;;23.23;14.73;;;3.20;99.90;;;;;;4987777;28;20447;-67
2020/12/29 07:54:28;;;;;;;25.53;15.70;;;3.20;99.90;;;;;;4986372;28;20533;-66
2020/12/29 07:56:55;;;;;;;29.20;17.60;;;3.20;99.90;;;;;;4986792;28;20474;-65
2020/12/29 07:59:22;;;;;;;31.47;16.60;;;3.30;99.90;;;;;;4986874;28;20506;-65
2020/12/29 08:01:54;;;;;;;24.43;14.20;;;3.30;99.90;;;;;;4986762;28;20799;-66
2020/12/29 08:04:31;;;;;;;25.40;14.40;;;3.40;99.90;;;;;;4987664;28;20483;-66
2020/12/29 08:06:59;;;;;;;22.53;13.50;;;3.40;99.90;;;;;;4987254;28;20537;-66
2020/12/29 08:09:26;;;;;;;24.57;13.93;;;3.40;99.90;;;;;;4987344;28;21032;-66
2020/12/29 08:12:01;;;;;;;23.13;13.20;;;3.50;99.90;;;;;;4986322;28;20811;-66
2020/12/29 08:14:28;;;;;;;21.27;13.47;;;3.40;99.90;;;;;;4986625;28;20466;-66
2020/12/29 08:17:03;;;;;;;27.73;15.07;;;3.40;99.90;;;;;;4990164;28;20494;-65
2020/12/29 08:19:30;;;;;;;22.43;15.23;;;3.40;99.90;;;;;;4989842;28;20430;-67
2020/12/29 08:21:57;;;;;;;23.53;13.93;;;3.40;99.90;;;;;;4989770;28;20506;-66
2020/12/29 08:24:24;;;;;;;28.77;16.07;;;3.40;99.90;;;;;;4990687;28;20434;-66
2020/12/29 08:26:57;;;;;;;25.27;14.67;;;3.50;99.90;;;;;;4990859;28;20538;-67
2020/12/29 08:29:23;;;;;;;29.17;15.20;;;3.40;99.90;;;;;;4990687;28;20471;-67
2020/12/29 08:32:06;;;;;;;24.33;12.47;;;3.40;99.90;;;;;;4990548;28;20482;-66
2020/12/29 08:34:33;;;;;;;22.30;12.53;;;3.50;99.90;;;;;;4991014;28;20450;-66
2020/12/29 08:37:01;;;;;;;25.73;13.80;;;3.50;99.90;;;;;;4990627;28;20458;-66
2020/12/29 08:39:48;;;;;;;22.93;13.17;;;3.50;99.90;;;;;;4988125;28;20474;-66
2020/12/29 08:42:18;;;;;;;26.60;15.80;;;3.50;99.90;;;;;;4988123;28;20491;-66
2020/12/29 08:44:46;;;;;;;20.67;13.87;;;3.60;99.90;;;;;;4988997;28;20506;-66
2020/12/29 08:47:13;;;;;;;28.23;18.40;;;3.60;99.90;;;;;;4988821;28;20467;-66
2020/12/29 08:49:40;;;;;;;31.77;18.17;;;3.60;99.90;;;;;;4990490;28;20599;-66
2020/12/29 08:52:07;;;;;;;27.70;20.73;;;3.70;99.90;;;;;;4989481;28;20451;-66
2020/12/29 08:54:36;;;;;;;34.80;19.27;;;3.60;99.90;;;;;;4990070;28;20467;-66
2020/12/29 08:57:05;;;;;;;34.33;19.30;;;3.60;99.90;;;;;;4989924;28;20463;-66
2020/12/29 08:59:40;;;;;;;42.03;19.40;;;3.60;99.90;;;;;;4989398;28;20455;-66
2020/12/29 09:02:09;;;;;;;33.10;17.80;;;3.70;99.90;;;;;;4989142;28;20529;-66
2020/12/29 09:04:37;;;;;;;35.13;19.27;;;3.60;99.90;;;;;;4989116;28;20482;-67
2020/12/29 09:07:05;;;;;;;27.93;16.67;;;3.70;99.90;;;;;;4989405;28;20450;-66
2020/12/29 09:09:34;;;;;;;33.50;16.60;;;3.70;99.90;;;;;;4989513;28;20505;-66
2020/12/29 09:12:15;;;;;;;33.33;18.53;;;3.70;99.90;;;;;;4988516;28;20515;-67
2020/12/29 09:14:53;;;;;;;30.43;16.37;;;3.80;99.90;;;;;;4987942;28;20520;-66
2020/12/29 09:17:21;;;;;;;25.97;14.10;;;3.80;99.90;;;;;;4988297;28;20482;-67
2020/12/29 09:20:07;;;;;;;30.17;16.50;;;3.90;99.90;;;;;;4988687;28;20493;-66
2020/12/29 09:22:33;;;;;;;21.57;13.47;;;3.90;99.90;;;;;;4988266;28;20470;-65
2020/12/29 09:25:00;;;;;;;22.53;14.10;;;3.90;99.90;;;;;;4986853;28;20546;-66
2020/12/29 09:27:27;;;;;;;21.00;11.33;;;4.00;99.90;;;;;;4987484;28;20478;-66
2020/12/29 09:29:55;;;;;;;16.30;11.10;;;4.00;99.90;;;;;;4987088;28;20517;-66
2020/12/29 09:32:23;;;;;;;20.03;12.77;;;4.10;99.90;;;;;;4987271;28;20450;-67
2020/12/29 09:34:50;;;;;;;20.73;11.73;;;4.10;99.90;;;;;;4987164;28;20534;-67
2020/12/29 09:37:16;;;;;;;18.30;12.50;;;4.10;99.90;;;;;;4987383;28;20780;-67
2020/12/29 09:39:43;;;;;;;20.07;12.03;;;4.20;99.90;;;;;;4986970;28;20506;-66
2020/12/29 09:42:09;;;;;;;19.30;11.93;;;4.30;99.90;;;;;;4987309;28;20860;-66
2020/12/29 09:44:36;;;;;;;20.63;11.77;;;4.30;99.90;;;;;;4987218;28;20531;-66
2020/12/29 09:47:03;;;;;;;18.17;11.67;;;4.40;99.90;;;;;;4986196;28;20459;-66
2020/12/29 09:49:29;;;;;;;19.83;11.47;;;4.40;99.90;;;;;;4986401;28;20478;-66
2020/12/29 09:51:56;;;;;;;15.00;10.07;;;4.40;99.90;;;;;;4986345;28;20474;-65
2020/12/29 09:54:23;;;;;;;17.50;11.50;;;4.50;99.90;;;;;;4985713;28;20924;-66
2020/12/29 09:56:49;;;;;;;18.33;10.00;;;4.50;99.90;;;;;;4985579;28;20459;-67
2020/12/29 09:59:15;;;;;;;19.77;10.13;;;4.60;99.90;;;;;;4986750;28;20455;-67
2020/12/29 10:01:42;;;;;;;23.70;11.37;;;4.70;99.90;;;;;;4986158;28;20451;-66
2020/12/29 10:04:09;;;;;;;15.13;10.10;;;4.80;99.90;;;;;;4984847;28;20494;-66
2020/12/29 10:06:36;;;;;;;20.20;11.87;;;5.00;99.90;;;;;;4984940;28;20478;-67
2020/12/29 10:09:02;;;;;;;17.57;10.77;;;5.30;99.90;;;;;;4983423;28;20551;-66
2020/12/29 10:11:29;;;;;;;23.13;11.97;;;5.50;99.90;;;;;;4982953;28;20573;-66
2020/12/29 10:13:55;;;;;;;21.90;11.77;;;5.70;99.90;;;;;;4984000;28;20467;-66
2020/12/29 10:16:22;;;;;;;13.83;10.40;;;5.80;99.90;;;;;;4982880;28;20443;-66
2020/12/29 10:18:48;;;;;;;18.53;10.17;;;6.10;99.90;;;;;;4982993;28;20542;-67
2020/12/29 10:21:15;;;;;;;13.53;9.63;;;6.30;99.90;;;;;;4982921;28;20548;-66
2020/12/29 10:23:42;;;;;;;17.30;9.53;;;6.60;99.90;;;;;;4982173;28;20461;-66
2020/12/29 10:26:08;;;;;;;17.27;11.40;;;7.00;99.90;;;;;;4981660;28;20494;-65
2020/12/29 10:28:35;;;;;;;18.10;10.27;;;7.20;99.90;;;;;;4981352;28;20955;-66
2020/12/29 10:31:02;;;;;;;19.73;10.80;;;7.40;99.90;;;;;;4981560;28;20482;-66
2020/12/29 10:33:28;;;;;;;12.97;9.10;;;7.40;99.90;;;;;;4980728;28;20458;-66
2020/12/29 10:35:55;;;;;;;16.63;10.03;;;7.20;99.90;;;;;;4981041;28;20514;-66
2020/12/29 10:38:22;;;;;;;15.50;10.53;;;7.00;99.90;;;;;;4980921;28;20483;-66
2020/12/29 10:40:49;;;;;;;18.30;10.70;;;6.80;99.90;;;;;;4981270;28;20467;-66
2020/12/29 10:43:15;;;;;;;17.30;10.93;;;6.70;99.90;;;;;;4981230;28;20912;-65
2020/12/29 10:45:42;;;;;;;21.27;9.50;;;6.70;99.90;;;;;;4982091;28;20482;-65
2020/12/29 10:48:08;;;;;;;13.37;8.47;;;6.60;99.90;;;;;;4981831;28;20453;-65
2020/12/29 10:50:35;;;;;;;12.67;8.23;;;6.40;99.90;;;;;;4981373;28;20514;-66
2020/12/29 10:53:01;;;;;;;14.90;8.87;;;6.30;99.90;;;;;;4982174;28;20478;-66
2020/12/29 10:55:28;;;;;;;19.07;9.17;;;6.10;99.90;;;;;;4981959;28;20463;-65
2020/12/29 10:57:55;;;;;;;18.03;9.90;;;6.00;99.90;;;;;;4982430;28;20788;-66
2020/12/29 11:00:21;;;;;;;14.60;9.50;;;6.00;99.90;;;;;;4982572;28;20466;-66
2020/12/29 11:02:48;;;;;;;14.93;8.20;;;5.90;99.90;;;;;;4981114;28;20510;-65
2020/12/29 11:05:14;;;;;;;14.17;8.90;;;5.70;99.90;;;;;;4982018;28;20503;-66
2020/12/29 11:07:40;;;;;;;15.03;8.33;;;5.60;99.90;;;;;;4982597;28;20450;-65
2020/12/29 11:10:07;;;;;;;13.57;9.13;;;5.60;99.90;;;;;;4982898;28;20533;-65
2020/12/29 11:12:34;;;;;;;17.03;9.13;;;5.60;99.90;;;;;;4982701;28;21023;-65
2020/12/29 11:15:00;;;;;;;14.10;8.83;;;5.50;99.90;;;;;;4981406;28;20537;-65
2020/12/29 11:17:27;;;;;;;16.90;8.40;;;5.50;99.90;;;;;;4982116;28;20607;-66
2020/12/29 11:19:53;;;;;;;14.23;8.20;;;5.50;99.90;;;;;;4982404;28;20474;-66
2020/12/29 11:22:19;;;;;;;13.17;7.60;;;5.50;99.90;;;;;;4982457;28;20475;-66
2020/12/29 11:24:46;;;;;;;13.90;9.23;;;5.60;99.90;;;;;;4983248;28;20497;-66
2020/12/29 11:27:12;;;;;;;13.60;7.60;;;5.60;99.90;;;;;;4982573;28;20489;-66
2020/12/29 11:29:39;;;;;;;9.20;7.00;;;5.70;99.90;;;;;;4982714;28;20498;-66
2020/12/29 11:32:06;;;;;;;13.83;8.33;;;5.80;99.90;;;;;;4982420;28;20467;-67
2020/12/29 11:34:32;;;;;;;14.40;8.87;;;5.70;99.90;;;;;;4983035;28;20494;-65
2020/12/29 11:36:58;;;;;;;14.83;8.00;;;5.70;99.90;;;;;;4981905;28;20529;-66
2020/12/29 11:39:25;;;;;;;12.30;8.17;;;5.80;99.90;;;;;;4982364;28;20936;-66
2020/12/29 11:41:52;;;;;;;12.70;8.23;;;5.90;99.90;;;;;;4983107;28;20482;-67
2020/12/29 11:44:18;;;;;;;11.47;7.60;;;5.80;99.90;;;;;;4982452;28;20443;-65
2020/12/29 11:46:47;;;;;;;13.37;8.60;;;5.70;99.90;;;;;;4982878;28;20458;-66
2020/12/29 11:49:14;;;;;;;11.87;7.80;;;5.80;99.90;;;;;;4981841;28;20482;-66
2020/12/29 11:51:45;;;;;;;14.20;7.90;;;5.80;99.90;;;;;;4985953;28;20451;-66
2020/12/29 11:54:11;;;;;;;14.43;8.57;;;5.80;99.90;;;;;;4986674;28;20427;-66
2020/12/29 11:56:38;;;;;;;9.00;6.10;;;5.90;99.90;;;;;;4986355;28;20490;-66
2020/12/29 11:59:04;;;;;;;11.10;7.27;;;5.80;99.90;;;;;;4986583;28;20733;-66
2020/12/29 12:01:30;;;;;;;10.80;7.20;;;5.80;99.90;;;;;;4985881;28;20554;-65
2020/12/29 12:03:58;;;;;;;10.20;7.73;;;5.80;99.90;;;;;;4985687;28;20489;-67
2020/12/29 12:06:32;;;;;;;10.17;7.40;;;5.80;99.90;;;;;;4985837;28;20451;-67
2020/12/29 12:08:58;;;;;;;11.87;7.83;;;5.80;99.90;;;;;;4989325;28;20538;-67
2020/12/29 12:11:27;;;;;;;11.87;8.40;;;5.80;99.90;;;;;;4987306;28;20486;-66
2020/12/29 12:13:54;;;;;;;11.00;7.17;;;5.80;99.90;;;;;;4985960;28;20466;-67
2020/12/29 12:16:20;;;;;;;9.57;6.40;;;5.80;99.90;;;;;;4985716;28;20939;-66
2020/12/29 12:18:47;;;;;;;12.30;7.37;;;5.80;99.90;;;;;;4986255;28;20455;-66
2020/12/29 12:21:14;;;;;;;9.60;7.50;;;5.90;99.90;;;;;;4986262;28;20471;-67
2020/12/29 12:23:40;;;;;;;13.17;8.10;;;5.90;99.90;;;;;;4985151;28;20473;-66
2020/12/29 12:26:15;;;;;;;12.20;7.67;;;5.90;99.90;;;;;;4984522;28;20464;-66
2020/12/29 12:28:41;;;;;;;12.73;7.27;;;6.00;99.90;;;;;;4985350;28;20634;-65
2020/12/29 12:31:13;;;;;;;11.50;7.33;;;6.10;99.90;;;;;;4984840;28;20514;-65
2020/12/29 12:33:39;;;;;;;9.17;7.40;;;6.20;99.90;;;;;;4984772;28;20851;-66
2020/12/29 12:36:05;;;;;;;11.30;6.77;;;6.20;99.90;;;;;;4985416;28;20970;-65
2020/12/29 12:38:33;;;;;;;10.17;7.47;;;6.30;99.90;;;;;;4984810;28;20447;-65
2020/12/29 12:40:59;;;;;;;9.83;6.50;;;6.40;99.90;;;;;;4984989;28;20527;-65
2020/12/29 12:43:25;;;;;;;15.47;5.73;;;6.30;99.90;;;;;;4984453;28;20477;-66